Terminal Aerodrome Forecast
Issued by NWS Kansas City/Pleasant Hill, MO

Home | Current Version | Previous Version | Text Only | Print | Product List | Glossary On
Versions: 1 2 3 4 5 6 7 8 9 10
361
FTUS43 KEAX 211120
TAFMCI
TAF
KMCI 211120Z 2112/2212 05009KT P6SM SCT200
     FM211800 06011KT P6SM VCSH BKN150
     FM220000 06012KT P6SM -SHRA OVC050
     FM220600 05011KT P6SM VCSH OVC035
     FM221000 04009KT P6SM VCSH OVC035=

USA.gov is the U.S. government's official web portal to all federal, state and local government web resources and services.